createdAt,value
2023-08-31T00:00:15.121Z,7.05
2023-08-31T00:02:44.654Z,6.47
2023-08-31T00:05:16.931Z,6.10
2023-08-31T00:07:47.616Z,5.78
2023-08-31T00:10:18.415Z,7.80
2023-08-31T00:12:47.990Z,6.10
2023-08-31T00:15:17.583Z,5.63
2023-08-31T00:17:47.173Z,8.02
2023-08-31T00:20:20.104Z,6.55
2023-08-31T00:22:49.693Z,7.05
2023-08-31T00:25:19.429Z,7.07
2023-08-31T00:27:49.743Z,7.70
2023-08-31T00:30:19.304Z,7.40
2023-08-31T00:32:49.005Z,6.25
2023-08-31T00:35:21.248Z,6.90
2023-08-31T00:37:52.389Z,6.03
2023-08-31T00:40:22.119Z,7.55
2023-08-31T00:42:52.941Z,6.85
2023-08-31T00:45:23.424Z,6.10
2023-08-31T00:47:53.358Z,7.55
2023-08-31T00:50:26.026Z,8.05
2023-08-31T00:52:55.599Z,6.75
2023-08-31T00:55:25.523Z,6.43
2023-08-31T00:57:56.720Z,6.55
2023-08-31T01:00:27.546Z,6.30
2023-08-31T01:03:02.395Z,8.50
2023-08-31T01:05:39.160Z,7.18
2023-08-31T01:08:15.388Z,6.93
2023-08-31T01:10:47.945Z,6.93
2023-08-31T01:13:18.681Z,7.03
2023-08-31T01:15:49.816Z,8.38
2023-08-31T01:18:20.189Z,6.85
2023-08-31T01:20:56.844Z,6.10
2023-08-31T01:23:26.512Z,7.90
2023-08-31T01:25:58.636Z,7.93
2023-08-31T01:28:28.513Z,7.70
2023-08-31T01:30:58.540Z,7.22
2023-08-31T01:33:28.121Z,8.43
2023-08-31T01:35:57.666Z,7.55
2023-08-31T01:38:31.361Z,7.32
2023-08-31T01:41:04.695Z,7.20
2023-08-31T01:43:34.797Z,7.72
2023-08-31T01:46:05.225Z,8.77
2023-08-31T01:48:34.917Z,8.30
2023-08-31T01:51:05.016Z,7.38
2023-08-31T01:53:34.604Z,9.30
2023-08-31T01:56:07.404Z,10.52
2023-08-31T01:58:37.033Z,8.10
2023-08-31T02:01:06.613Z,7.07
2023-08-31T02:03:36.429Z,9.20
2023-08-31T02:06:06.209Z,8.07
2023-08-31T02:08:36.165Z,8.10
2023-08-31T02:11:08.310Z,8.18
2023-08-31T02:13:38.196Z,7.88
2023-08-31T02:16:08.152Z,7.85
2023-08-31T02:18:37.751Z,9.23
2023-08-31T02:21:08.752Z,8.63
2023-08-31T02:26:10.233Z,7.90
2023-08-31T02:28:39.761Z,9.00
2023-08-31T02:31:09.383Z,8.40
2023-08-31T02:33:38.985Z,9.77
2023-08-31T02:36:08.842Z,8.43
2023-08-31T02:38:38.557Z,7.35
2023-08-31T02:41:10.708Z,7.15
2023-08-31T02:43:40.452Z,7.72
2023-08-31T02:46:10.112Z,8.32
2023-08-31T02:48:40.280Z,10.48
2023-08-31T02:51:10.174Z,7.90
2023-08-31T02:53:39.814Z,8.02
2023-08-31T02:56:11.943Z,8.75
2023-08-31T02:58:41.777Z,8.10
2023-08-31T03:01:12.892Z,7.63
2023-08-31T03:03:42.614Z,8.30
2023-08-31T03:06:12.574Z,8.25
2023-08-31T03:08:42.250Z,8.45
2023-08-31T03:11:15.568Z,9.32
2023-08-31T03:13:45.201Z,9.25
2023-08-31T03:16:14.748Z,7.55
2023-08-31T03:18:44.356Z,8.75
2023-08-31T03:21:13.886Z,7.95
2023-08-31T03:23:43.456Z,8.57
2023-08-31T03:26:15.721Z,9.95
2023-08-31T03:28:45.313Z,6.57
2023-08-31T03:31:14.960Z,7.38
2023-08-31T03:33:44.692Z,9.02
2023-08-31T03:36:14.393Z,8.15
2023-08-31T03:38:43.956Z,7.65
2023-08-31T03:41:16.288Z,8.05
2023-08-31T03:43:45.852Z,8.23
2023-08-31T03:46:15.411Z,8.10
2023-08-31T03:48:45.020Z,9.23
2023-08-31T03:51:14.684Z,10.63
2023-08-31T03:53:45.340Z,10.07
2023-08-31T03:56:17.517Z,8.48
2023-08-31T03:58:47.109Z,8.75
2023-08-31T04:01:16.722Z,9.50
2023-08-31T04:03:46.444Z,7.18
2023-08-31T04:06:16.006Z,7.28
2023-08-31T04:08:45.591Z,6.70
2023-08-31T04:11:17.718Z,7.50
2023-08-31T04:13:47.294Z,7.88
2023-08-31T04:16:16.883Z,10.50
2023-08-31T04:18:48.890Z,10.02
2023-08-31T04:21:18.445Z,7.55
2023-08-31T04:23:48.118Z,8.18
2023-08-31T04:26:21.637Z,11.43
2023-08-31T04:28:51.214Z,8.15
2023-08-31T04:31:20.799Z,8.15
2023-08-31T04:33:54.795Z,7.57
2023-08-31T04:36:24.478Z,7.90
2023-08-31T04:38:54.249Z,9.30
2023-08-31T04:41:26.446Z,9.05
2023-08-31T04:43:55.987Z,72.25
2023-08-31T04:46:25.568Z,97.35
2023-08-31T04:48:55.162Z,54.20
2023-08-31T04:51:34.272Z,54.97
2023-08-31T04:54:04.138Z,18.65
2023-08-31T04:56:36.831Z,10.70
2023-08-31T04:59:06.738Z,8.63
2023-08-31T05:01:36.288Z,8.05
2023-08-31T05:04:06.616Z,8.32
2023-08-31T05:06:36.234Z,8.10
2023-08-31T05:09:07.289Z,7.97
2023-08-31T05:14:09.039Z,12.55
2023-08-31T05:16:38.693Z,9.32
2023-08-31T05:19:08.856Z,7.85
2023-08-31T05:21:38.431Z,8.03
2023-08-31T05:24:08.945Z,7.03
2023-08-31T05:26:41.113Z,7.13
2023-08-31T05:29:10.800Z,5.78
2023-08-31T05:31:40.502Z,5.57
2023-08-31T05:34:10.169Z,6.55
2023-08-31T05:36:39.787Z,7.28
2023-08-31T05:39:10.156Z,6.60
2023-08-31T05:41:44.212Z,6.97
2023-08-31T05:44:13.958Z,8.18
2023-08-31T05:46:46.297Z,7.72
2023-08-31T05:49:15.930Z,7.38
2023-08-31T05:51:45.522Z,7.22
2023-08-31T05:54:15.638Z,8.85
2023-08-31T05:56:49.197Z,8.50
2023-08-31T05:59:18.817Z,8.63
2023-08-31T06:01:48.415Z,11.18
2023-08-31T06:04:18.076Z,9.57
2023-08-31T06:06:48.974Z,8.35
2023-08-31T06:09:18.788Z,7.97
2023-08-31T06:11:50.988Z,8.48
2023-08-31T06:14:20.776Z,9.35
2023-08-31T06:16:50.962Z,8.30
2023-08-31T06:19:20.575Z,8.77
2023-08-31T06:21:50.167Z,7.82
2023-08-31T06:24:19.773Z,8.63
2023-08-31T06:26:53.220Z,7.13
2023-08-31T06:29:22.847Z,7.90
2023-08-31T06:31:52.469Z,9.60
2023-08-31T06:34:22.192Z,8.52
2023-08-31T06:36:51.762Z,7.72
2023-08-31T06:39:21.525Z,8.80
2023-08-31T06:41:53.802Z,8.07
2023-08-31T06:44:23.418Z,8.10
2023-08-31T06:46:53.065Z,8.18
2023-08-31T06:49:23.354Z,7.18
2023-08-31T06:51:55.247Z,8.85
2023-08-31T06:54:24.872Z,7.90
2023-08-31T06:56:57.074Z,8.35
2023-08-31T06:59:26.737Z,6.95
2023-08-31T07:01:56.422Z,6.78
2023-08-31T07:04:26.033Z,7.63
2023-08-31T07:06:55.655Z,6.47
2023-08-31T07:09:25.340Z,9.35
2023-08-31T07:11:57.560Z,7.80
2023-08-31T07:14:27.395Z,6.43
2023-08-31T07:16:57.126Z,7.68
2023-08-31T07:19:26.843Z,8.95
2023-08-31T07:21:56.476Z,8.18
2023-08-31T07:24:26.599Z,7.82
2023-08-31T07:26:58.788Z,7.53
2023-08-31T07:29:29.435Z,7.00
2023-08-31T07:31:59.017Z,7.68
2023-08-31T07:34:29.002Z,6.32
2023-08-31T07:36:58.666Z,8.77
2023-08-31T07:39:28.771Z,6.85
2023-08-31T07:42:01.176Z,9.33
2023-08-31T07:44:30.790Z,7.45
2023-08-31T07:47:00.618Z,7.22
2023-08-31T07:49:30.424Z,9.63
2023-08-31T07:52:00.037Z,7.10
2023-08-31T07:54:29.850Z,7.85
2023-08-31T07:57:02.036Z,6.03
2023-08-31T07:59:31.686Z,7.13
2023-08-31T08:02:01.521Z,7.80
2023-08-31T08:04:31.188Z,7.85
2023-08-31T08:07:00.807Z,10.60
2023-08-31T08:09:31.059Z,5.70
2023-08-31T08:12:03.601Z,5.78
2023-08-31T08:14:33.614Z,6.40
2023-08-31T08:17:03.233Z,5.00
2023-08-31T08:19:32.823Z,8.75
2023-08-31T08:22:02.482Z,6.57
2023-08-31T08:24:32.115Z,5.35
2023-08-31T08:27:04.305Z,5.50
2023-08-31T08:29:33.953Z,7.00
2023-08-31T08:32:05.177Z,5.82
2023-08-31T08:34:35.052Z,5.60
2023-08-31T08:37:04.952Z,4.78
2023-08-31T08:39:34.556Z,4.88
2023-08-31T08:42:08.495Z,5.90
2023-08-31T08:44:38.066Z,7.05
2023-08-31T08:47:07.713Z,5.00
2023-08-31T08:49:37.650Z,5.65
2023-08-31T08:52:10.198Z,7.43
2023-08-31T08:54:40.688Z,7.25
2023-08-31T08:57:12.976Z,5.20
2023-08-31T08:59:42.584Z,4.35
2023-08-31T09:02:12.451Z,3.90
2023-08-31T09:04:42.071Z,5.88
2023-08-31T09:07:11.688Z,5.35
2023-08-31T09:09:52.982Z,6.88
2023-08-31T09:12:26.293Z,6.18
2023-08-31T09:15:02.634Z,5.28
2023-08-31T09:17:41.601Z,5.80
2023-08-31T09:20:13.212Z,8.52
2023-08-31T09:22:46.061Z,4.10
2023-08-31T09:25:15.832Z,6.78
2023-08-31T09:27:48.708Z,5.15
2023-08-31T09:30:18.533Z,6.15
2023-08-31T09:32:48.148Z,5.97
2023-08-31T09:35:21.974Z,5.05
2023-08-31T09:37:59.873Z,5.18
2023-08-31T09:40:29.760Z,5.70
2023-08-31T09:43:01.956Z,4.22
2023-08-31T09:48:07.536Z,6.53
2023-08-31T09:50:37.762Z,3.90
2023-08-31T09:53:08.168Z,3.53
2023-08-31T09:55:37.876Z,4.78
2023-08-31T09:58:16.079Z,4.68
2023-08-31T10:00:46.579Z,4.05
2023-08-31T10:03:19.227Z,3.72
2023-08-31T10:05:50.735Z,4.45
2023-08-31T10:10:50.348Z,5.78
2023-08-31T10:13:22.531Z,3.97
2023-08-31T10:15:52.270Z,4.22
2023-08-31T10:18:21.834Z,5.60
2023-08-31T10:20:51.451Z,3.97
2023-08-31T10:23:21.037Z,3.80
2023-08-31T10:26:06.203Z,6.38
2023-08-31T10:28:43.564Z,3.75
2023-08-31T10:31:11.286Z,3.78
2023-08-31T10:33:44.490Z,3.72
2023-08-31T10:36:15.598Z,3.92
2023-08-31T10:38:45.791Z,5.82
2023-08-31T10:41:26.014Z,6.65
2023-08-31T10:43:59.308Z,4.05
2023-08-31T10:46:32.829Z,5.78
2023-08-31T10:49:04.281Z,3.13
2023-08-31T10:51:34.516Z,3.22
2023-08-31T10:54:11.656Z,4.50
2023-08-31T10:56:57.737Z,4.00
2023-08-31T10:59:31.288Z,4.97
2023-08-31T11:02:02.176Z,4.63
2023-08-31T11:07:17.406Z,5.57
2023-08-31T11:09:47.386Z,4.97
2023-08-31T11:12:17.198Z,4.20
2023-08-31T11:14:49.393Z,4.15
2023-08-31T11:17:18.960Z,3.60
2023-08-31T11:19:48.573Z,3.08
2023-08-31T11:22:18.228Z,3.53
2023-08-31T11:24:47.894Z,3.38
2023-08-31T11:27:17.515Z,3.97
2023-08-31T11:29:49.766Z,5.25
2023-08-31T11:32:19.354Z,4.28
2023-08-31T11:34:49.002Z,3.30
2023-08-31T11:37:21.237Z,4.03
2023-08-31T11:39:54.762Z,4.57
2023-08-31T11:42:25.120Z,5.03
2023-08-31T11:44:57.404Z,4.03
2023-08-31T11:47:26.989Z,4.13
2023-08-31T11:49:56.596Z,3.53
2023-08-31T11:52:26.171Z,3.58
2023-08-31T11:54:56.223Z,4.90
2023-08-31T11:57:29.752Z,6.23
2023-08-31T12:00:02.390Z,4.65
2023-08-31T12:02:31.972Z,4.28
2023-08-31T12:05:01.606Z,3.13
2023-08-31T12:07:31.210Z,4.18
2023-08-31T12:10:06.529Z,3.38
2023-08-31T12:12:37.829Z,3.65
2023-08-31T12:15:10.665Z,4.20
2023-08-31T12:17:44.740Z,4.25
2023-08-31T12:20:15.458Z,4.40
2023-08-31T12:22:45.056Z,3.90
2023-08-31T12:25:14.672Z,4.03
2023-08-31T12:27:44.450Z,5.20
2023-08-31T12:30:17.357Z,5.43
2023-08-31T12:32:46.985Z,4.68
2023-08-31T12:35:16.868Z,5.30
2023-08-31T12:37:46.596Z,6.33
2023-08-31T12:40:16.447Z,5.65
2023-08-31T12:42:46.874Z,5.43
2023-08-31T12:45:20.447Z,5.82
2023-08-31T12:47:50.813Z,4.35
2023-08-31T12:50:21.067Z,5.45
2023-08-31T12:52:50.735Z,5.05
2023-08-31T12:55:21.010Z,5.07
2023-08-31T12:57:50.652Z,8.35
2023-08-31T13:00:23.562Z,4.45
2023-08-31T13:02:54.193Z,6.90
2023-08-31T13:05:23.960Z,7.00
2023-08-31T13:07:53.556Z,5.43
2023-08-31T13:10:23.339Z,5.43
2023-08-31T13:12:52.933Z,4.70
2023-08-31T13:15:25.174Z,5.70
2023-08-31T13:17:54.808Z,7.18
2023-08-31T13:20:24.450Z,4.30
2023-08-31T13:22:54.056Z,4.88
2023-08-31T13:25:25.241Z,5.28
2023-08-31T13:27:56.184Z,7.95
2023-08-31T13:30:28.807Z,5.47
2023-08-31T13:32:59.504Z,6.07
2023-08-31T13:35:29.249Z,4.13
2023-08-31T13:37:58.879Z,4.40
2023-08-31T13:40:28.733Z,5.40
2023-08-31T13:43:02.337Z,6.63
2023-08-31T13:45:34.805Z,5.80
2023-08-31T13:48:05.591Z,5.70
2023-08-31T13:53:04.720Z,7.78
2023-08-31T13:55:35.987Z,5.03
2023-08-31T13:58:08.027Z,7.20
2023-08-31T14:00:40.214Z,4.80
2023-08-31T14:03:10.067Z,6.18
2023-08-31T14:05:39.749Z,5.73
2023-08-31T14:08:09.837Z,10.38
2023-08-31T14:10:43.485Z,5.03
2023-08-31T14:13:13.044Z,4.55
2023-08-31T14:15:48.290Z,5.30
2023-08-31T14:18:18.159Z,5.55
2023-08-31T14:20:48.006Z,6.90
2023-08-31T14:23:17.644Z,7.72
2023-08-31T14:25:47.232Z,8.07
2023-08-31T14:28:16.843Z,5.47
2023-08-31T14:30:49.002Z,5.53
2023-08-31T14:33:20.281Z,5.47
2023-08-31T14:35:49.828Z,7.22
2023-08-31T14:38:23.795Z,6.50
2023-08-31T14:40:53.375Z,5.88
2023-08-31T14:43:23.033Z,5.22
2023-08-31T14:45:55.210Z,5.95
2023-08-31T14:48:24.819Z,8.48
2023-08-31T14:50:54.361Z,7.28
2023-08-31T14:53:24.335Z,8.63
2023-08-31T14:55:53.936Z,5.60
2023-08-31T14:58:23.539Z,6.20
2023-08-31T15:00:58.805Z,5.72
2023-08-31T15:03:28.591Z,7.18
2023-08-31T15:05:58.265Z,8.52
2023-08-31T15:08:40.002Z,7.30
2023-08-31T15:11:09.661Z,7.18
2023-08-31T15:13:39.194Z,6.32
2023-08-31T15:16:11.392Z,6.88
2023-08-31T15:18:40.953Z,8.13
2023-08-31T15:21:10.578Z,7.88
2023-08-31T15:23:40.340Z,5.00
2023-08-31T15:26:09.905Z,7.82
2023-08-31T15:28:39.477Z,10.40
2023-08-31T15:31:11.670Z,6.25
2023-08-31T15:33:41.284Z,5.70
2023-08-31T15:36:11.456Z,6.80
2023-08-31T15:38:41.268Z,7.45
2023-08-31T15:41:11.034Z,7.47
2023-08-31T15:43:41.083Z,7.03
2023-08-31T15:46:13.465Z,6.73
2023-08-31T15:48:43.066Z,4.80
2023-08-31T15:51:13.013Z,5.63
2023-08-31T15:53:42.743Z,6.87
2023-08-31T15:56:12.313Z,8.68
2023-08-31T15:58:42.319Z,6.00
2023-08-31T16:01:15.548Z,7.40
2023-08-31T16:03:45.140Z,6.43
2023-08-31T16:06:15.452Z,6.25
2023-08-31T16:08:45.135Z,8.43
2023-08-31T16:11:14.846Z,6.82
2023-08-31T16:13:44.413Z,7.20
2023-08-31T16:16:16.637Z,8.13
2023-08-31T16:18:46.543Z,8.45
2023-08-31T16:21:16.183Z,5.95
2023-08-31T16:23:45.756Z,7.32
2023-08-31T16:26:15.298Z,6.28
2023-08-31T16:28:44.846Z,6.38
2023-08-31T16:31:17.329Z,5.32
2023-08-31T16:33:46.963Z,7.55
2023-08-31T16:36:16.546Z,7.00
2023-08-31T16:38:46.085Z,7.63
2023-08-31T16:41:15.634Z,6.63
2023-08-31T16:43:45.433Z,5.47
2023-08-31T16:46:18.623Z,4.63
2023-08-31T16:48:48.198Z,6.22
2023-08-31T16:51:18.328Z,6.55
2023-08-31T16:53:49.481Z,5.63
2023-08-31T16:56:19.732Z,7.60
2023-08-31T16:58:49.314Z,6.63
2023-08-31T17:01:21.452Z,8.00
2023-08-31T17:03:51.221Z,7.82
2023-08-31T17:06:20.899Z,7.38
2023-08-31T17:08:51.760Z,6.15
2023-08-31T17:13:50.641Z,7.03
2023-08-31T17:16:22.881Z,6.95
2023-08-31T17:18:52.649Z,8.70
2023-08-31T17:21:22.201Z,7.13
2023-08-31T17:23:51.754Z,6.85
2023-08-31T17:26:24.880Z,6.68
2023-08-31T17:28:54.533Z,6.72
2023-08-31T17:31:27.310Z,8.75
2023-08-31T17:33:58.796Z,5.63
2023-08-31T17:36:28.559Z,9.15
2023-08-31T17:38:58.093Z,6.68
2023-08-31T17:41:27.983Z,8.40
2023-08-31T17:43:57.548Z,7.53
2023-08-31T17:46:31.629Z,7.47
2023-08-31T17:49:01.217Z,6.47
2023-08-31T17:51:30.871Z,5.78
2023-08-31T17:54:01.009Z,8.55
2023-08-31T17:56:32.158Z,8.65
2023-08-31T17:59:01.765Z,6.63
2023-08-31T18:01:34.810Z,7.28
2023-08-31T18:04:04.735Z,7.18
2023-08-31T18:06:34.876Z,6.28
2023-08-31T18:09:05.879Z,7.53
2023-08-31T18:14:04.839Z,9.02
2023-08-31T18:16:37.033Z,9.63
2023-08-31T18:19:07.278Z,7.72
2023-08-31T18:21:36.838Z,8.10
2023-08-31T18:24:08.892Z,6.90
2023-08-31T18:26:38.455Z,7.85
2023-08-31T18:29:08.109Z,8.85
2023-08-31T18:31:42.427Z,8.80
2023-08-31T18:34:12.231Z,9.48
2023-08-31T18:36:42.205Z,10.10
2023-08-31T18:39:11.788Z,10.63
2023-08-31T18:41:41.732Z,9.52
2023-08-31T18:44:11.306Z,9.30
2023-08-31T18:46:43.558Z,8.23
2023-08-31T18:49:13.256Z,10.02
2023-08-31T18:51:45.023Z,9.75
2023-08-31T18:54:14.683Z,9.13
2023-08-31T18:56:44.292Z,7.22
2023-08-31T18:59:13.934Z,8.15
2023-08-31T19:01:46.847Z,8.55
2023-08-31T19:04:17.772Z,8.43
2023-08-31T19:06:47.322Z,7.88
2023-08-31T19:09:16.856Z,9.18
2023-08-31T19:11:46.439Z,10.27
2023-08-31T19:14:16.010Z,7.57
2023-08-31T19:16:48.211Z,7.70
2023-08-31T19:19:18.119Z,9.00
2023-08-31T19:21:47.677Z,8.90
2023-08-31T19:24:17.234Z,10.55
2023-08-31T19:26:46.787Z,8.80
2023-08-31T19:29:16.377Z,11.75
2023-08-31T19:31:48.622Z,8.18
2023-08-31T19:34:18.354Z,8.60
2023-08-31T19:36:48.066Z,9.45
2023-08-31T19:39:17.671Z,8.10
2023-08-31T19:41:47.234Z,9.20
2023-08-31T19:44:16.795Z,11.23
2023-08-31T19:46:55.489Z,9.30
2023-08-31T19:49:25.753Z,9.30
2023-08-31T19:51:55.319Z,8.75
2023-08-31T19:54:24.943Z,12.05
2023-08-31T19:56:54.555Z,8.35
2023-08-31T19:59:24.106Z,8.80
2023-08-31T20:01:57.150Z,9.65
2023-08-31T20:04:26.795Z,10.80
2023-08-31T20:06:56.424Z,11.73
2023-08-31T20:09:27.879Z,9.20
2023-08-31T20:11:57.586Z,9.45
2023-08-31T20:14:27.202Z,8.05
2023-08-31T20:17:00.031Z,8.60
2023-08-31T20:19:29.638Z,10.23
2023-08-31T20:21:59.405Z,12.07
2023-08-31T20:24:28.953Z,8.52
2023-08-31T20:26:58.752Z,10.25
2023-08-31T20:29:28.372Z,7.63
2023-08-31T20:32:00.761Z,9.68
2023-08-31T20:34:30.403Z,10.25
2023-08-31T20:37:03.758Z,9.23
2023-08-31T20:39:33.788Z,8.85
2023-08-31T20:42:03.542Z,11.48
2023-08-31T20:44:33.583Z,10.98
2023-08-31T20:47:06.049Z,9.48
2023-08-31T20:49:35.683Z,10.73
2023-08-31T20:52:05.263Z,9.70
2023-08-31T20:54:34.911Z,9.85
2023-08-31T20:57:05.249Z,10.98
2023-08-31T20:59:35.370Z,12.73
2023-08-31T21:02:07.696Z,12.10
2023-08-31T21:04:37.465Z,9.18
2023-08-31T21:07:07.453Z,9.32
2023-08-31T21:09:37.066Z,9.80
2023-08-31T21:12:07.048Z,12.13
2023-08-31T21:14:36.751Z,12.43
2023-08-31T21:17:08.975Z,10.85
2023-08-31T21:19:38.572Z,11.85
2023-08-31T21:22:08.138Z,11.27
2023-08-31T21:24:37.989Z,10.02
2023-08-31T21:27:07.978Z,9.73
2023-08-31T21:29:37.644Z,10.30
2023-08-31T21:32:10.032Z,10.93
2023-08-31T21:34:37.047Z,11.10
2023-08-31T21:37:06.939Z,12.90
2023-08-31T21:39:36.593Z,10.30
2023-08-31T21:42:06.496Z,11.00
2023-08-31T21:44:36.107Z,10.52
2023-08-31T21:47:05.666Z,10.63
2023-08-31T21:49:38.074Z,11.02
2023-08-31T21:52:11.231Z,11.57
2023-08-31T21:54:44.160Z,11.23
2023-08-31T21:57:13.913Z,11.23
2023-08-31T21:59:43.753Z,10.32
2023-08-31T22:02:14.965Z,9.82
2023-08-31T22:04:47.396Z,11.25
2023-08-31T22:07:17.201Z,11.77
2023-08-31T22:09:48.471Z,10.30
2023-08-31T22:12:19.373Z,15.32
2023-08-31T22:14:49.393Z,12.70
2023-08-31T22:17:19.101Z,11.82
2023-08-31T22:19:51.558Z,10.75
2023-08-31T22:22:21.614Z,10.10
2023-08-31T22:24:51.376Z,10.57
2023-08-31T22:27:21.130Z,10.75
2023-08-31T22:29:50.841Z,11.00
2023-08-31T22:32:20.636Z,10.90
2023-08-31T22:34:52.803Z,9.68
2023-08-31T22:37:22.365Z,9.00
2023-08-31T22:39:51.937Z,9.15
2023-08-31T22:42:21.493Z,11.57
2023-08-31T22:44:51.057Z,10.10
2023-08-31T22:47:20.627Z,9.77
2023-08-31T22:49:55.463Z,9.80
2023-08-31T22:52:25.056Z,10.73
2023-08-31T22:54:56.346Z,10.65
2023-08-31T22:57:26.132Z,9.93
2023-08-31T22:59:55.845Z,9.70
2023-08-31T23:02:28.757Z,10.25
2023-08-31T23:05:00.991Z,9.13
2023-08-31T23:07:30.742Z,8.82
2023-08-31T23:10:00.725Z,7.43
2023-08-31T23:12:30.416Z,8.48
2023-08-31T23:15:00.003Z,9.48
2023-08-31T23:17:29.607Z,8.57
2023-08-31T23:20:01.816Z,8.60
2023-08-31T23:22:31.414Z,9.32
2023-08-31T23:25:01.041Z,10.35
2023-08-31T23:27:32.274Z,7.65
2023-08-31T23:30:01.996Z,9.55
2023-08-31T23:32:31.598Z,8.23
2023-08-31T23:35:03.808Z,9.07
2023-08-31T23:37:33.390Z,10.93
2023-08-31T23:40:05.729Z,8.38
2023-08-31T23:42:35.645Z,10.18
2023-08-31T23:45:05.283Z,9.52
2023-08-31T23:47:34.941Z,8.25
2023-08-31T23:50:07.937Z,8.27
2023-08-31T23:52:37.567Z,8.57
2023-08-31T23:55:07.624Z,8.35
2023-08-31T23:57:37.322Z,10.35
